createdAt,value
2023-04-03T00:00:43.964Z,71.52
2023-04-03T00:05:47.026Z,71.86
2023-04-03T00:10:49.445Z,71.95
2023-04-03T00:15:51.509Z,71.70
2023-04-03T00:20:53.511Z,72.48
2023-04-03T00:25:55.930Z,72.11
2023-04-03T00:30:58.426Z,70.88
2023-04-03T00:36:00.817Z,72.12
2023-04-03T00:41:02.907Z,72.28
2023-04-03T00:46:05.073Z,71.69
2023-04-03T00:51:10.753Z,72.12
2023-04-03T00:56:16.494Z,71.27
2023-04-03T01:01:23.281Z,72.26
2023-04-03T01:06:29.104Z,71.15
2023-04-03T01:11:31.087Z,70.96
2023-04-03T01:16:33.888Z,71.48
2023-04-03T01:22:13.012Z,71.20
2023-04-03T01:27:15.034Z,72.59
2023-04-03T01:32:17.096Z,72.61
2023-04-03T01:37:19.015Z,72.14
2023-04-03T01:42:21.127Z,71.29
2023-04-03T01:47:23.758Z,72.39
2023-04-03T01:52:25.800Z,71.58
2023-04-03T01:57:27.942Z,72.61
2023-04-03T02:07:48.912Z,71.32
2023-04-03T02:12:51.623Z,71.54
2023-04-03T02:17:54.017Z,71.54
2023-04-03T02:22:56.058Z,72.30
2023-04-03T02:27:58.413Z,72.25
2023-04-03T02:33:00.458Z,71.17
2023-04-03T02:38:02.470Z,71.37
2023-04-03T02:43:04.517Z,71.66
2023-04-03T02:48:06.669Z,71.42
2023-04-03T02:53:08.738Z,71.56
2023-04-03T02:58:10.768Z,72.69
2023-04-03T03:03:14.710Z,71.33
2023-04-03T03:08:16.857Z,71.67
2023-04-03T03:13:18.978Z,72.23
2023-04-03T03:18:21.268Z,71.38
2023-04-03T03:23:24.916Z,71.59
2023-04-03T03:28:27.501Z,72.39
2023-04-03T03:33:29.542Z,72.17
2023-04-03T03:38:31.800Z,71.34
2023-04-03T03:43:33.841Z,72.01
2023-04-03T03:48:35.999Z,71.77
2023-04-03T03:53:38.077Z,72.07
2023-04-03T03:58:40.288Z,71.89
2023-04-03T04:03:42.916Z,72.24
2023-04-03T04:08:45.083Z,72.40
2023-04-03T04:13:47.585Z,72.07
2023-04-03T04:18:49.709Z,72.25
2023-04-03T04:23:51.668Z,72.40
2023-04-03T04:28:53.659Z,71.81
2023-04-03T04:33:55.645Z,72.40
2023-04-03T04:38:58.389Z,72.23
2023-04-03T04:44:00.639Z,71.99
2023-04-03T04:49:02.721Z,72.36
2023-04-03T04:54:04.812Z,72.58
2023-04-03T04:59:06.965Z,72.39
2023-04-03T05:04:09.261Z,71.99
2023-04-03T05:09:11.705Z,72.09
2023-04-03T05:14:13.859Z,72.81
2023-04-03T05:19:16.105Z,73.59
2023-04-03T05:24:18.218Z,75.38
2023-04-03T05:29:20.276Z,78.31
2023-04-03T05:34:22.401Z,77.57
2023-04-03T05:39:25.525Z,78.72
2023-04-03T05:44:27.578Z,77.99
2023-04-03T05:49:29.631Z,78.40
2023-04-03T05:54:32.269Z,78.54
2023-04-03T05:59:34.471Z,79.09
2023-04-03T06:04:36.576Z,78.87
2023-04-03T06:09:38.810Z,79.07
2023-04-03T06:14:41.493Z,78.75
2023-04-03T06:19:43.660Z,79.33
2023-04-03T06:24:45.746Z,79.56
2023-04-03T06:29:48.131Z,79.14
2023-04-03T06:34:50.229Z,77.40
2023-04-03T06:39:52.224Z,76.71
2023-04-03T06:44:54.421Z,76.38
2023-04-03T06:49:56.239Z,74.76
2023-04-03T06:55:00.792Z,74.73
2023-04-03T07:00:05.353Z,73.59
2023-04-03T07:05:08.081Z,72.57
2023-04-03T07:10:10.907Z,71.59
2023-04-03T07:15:14.430Z,70.71
2023-04-03T07:20:16.625Z,69.71
2023-04-03T07:25:18.953Z,67.68
2023-04-03T07:30:21.346Z,67.00
2023-04-03T07:35:23.765Z,65.32
2023-04-03T07:40:26.776Z,65.19
2023-04-03T07:45:29.004Z,64.34
2023-04-03T07:50:32.520Z,64.65
2023-04-03T07:55:35.084Z,64.91
2023-04-03T08:00:39.608Z,63.60
2023-04-03T08:05:43.293Z,61.97
2023-04-03T08:10:49.102Z,63.54
2023-04-03T08:15:52.140Z,62.45
2023-04-03T08:20:54.316Z,62.62
2023-04-03T08:25:56.573Z,62.01
2023-04-03T08:31:07.992Z,59.50
2023-04-03T08:36:20.772Z,60.29
2023-04-03T08:41:57.241Z,59.57
2023-04-03T08:47:31.585Z,60.69
2023-04-03T08:52:46.765Z,60.13
2023-04-03T08:57:50.299Z,59.46
2023-04-03T09:02:54.860Z,57.43
2023-04-03T09:08:35.921Z,57.96
2023-04-03T09:13:47.304Z,57.52
2023-04-03T09:19:04.223Z,56.71
2023-04-03T09:24:08.978Z,53.99
2023-04-03T09:29:19.168Z,55.29
2023-04-03T09:34:29.707Z,55.46
2023-04-03T09:39:31.781Z,53.94
2023-04-03T09:44:37.441Z,53.71
2023-04-03T09:49:39.432Z,53.52
2023-04-03T09:54:42.398Z,51.49
2023-04-03T09:59:59.420Z,51.96
2023-04-03T10:10:21.457Z,52.38
2023-04-03T10:15:23.844Z,52.79
2023-04-03T10:20:44.849Z,48.24
2023-04-03T10:26:06.916Z,51.39
2023-04-03T10:31:24.268Z,42.84
2023-04-03T10:36:47.419Z,40.04
2023-04-03T10:42:17.079Z,43.29
2023-04-03T10:47:44.338Z,46.09
2023-04-03T10:53:12.552Z,45.49
2023-04-03T10:58:31.749Z,50.77
2023-04-03T11:03:54.531Z,50.01
2023-04-03T11:09:23.409Z,50.82
2023-04-03T11:14:32.761Z,52.91
2023-04-03T11:19:43.213Z,53.45
2023-04-03T11:25:03.688Z,51.68
2023-04-03T11:30:11.462Z,52.70
2023-04-03T11:35:13.709Z,52.46
2023-04-03T11:40:32.094Z,52.88
2023-04-03T11:46:04.357Z,54.55
2023-04-03T11:51:18.884Z,53.08
2023-04-03T11:56:31.836Z,50.34
2023-04-03T12:01:51.311Z,48.87
2023-04-03T12:07:00.377Z,50.00
2023-04-03T12:12:32.321Z,50.68
2023-04-03T12:17:34.850Z,53.60
2023-04-03T12:22:37.024Z,53.56
2023-04-03T12:27:49.210Z,52.92
2023-04-03T12:33:13.678Z,53.19
2023-04-03T12:38:48.099Z,50.34
2023-04-03T12:44:05.560Z,49.44
2023-04-03T12:49:23.898Z,51.07
2023-04-03T12:54:33.142Z,49.71
2023-04-03T12:59:35.253Z,49.05
2023-04-03T13:04:40.132Z,51.40
2023-04-03T13:09:42.328Z,50.30
2023-04-03T13:14:59.312Z,50.18
2023-04-03T13:20:15.925Z,49.33
2023-04-03T13:25:21.158Z,50.91
2023-04-03T13:30:28.619Z,50.38
2023-04-03T13:35:38.960Z,50.22
2023-04-03T13:46:29.668Z,50.92
2023-04-03T13:51:31.958Z,50.31
2023-04-03T13:56:38.904Z,51.20
2023-04-03T14:01:52.144Z,49.71
2023-04-03T14:06:54.831Z,50.20
2023-04-03T14:12:06.195Z,50.55
2023-04-03T14:17:24.938Z,50.23
2023-04-03T14:22:30.768Z,51.18
2023-04-03T14:27:39.352Z,50.64
2023-04-03T14:32:41.726Z,50.86
2023-04-03T14:37:44.986Z,50.52
2023-04-03T14:42:49.571Z,50.74
2023-04-03T14:47:54.396Z,50.41
2023-04-03T14:52:59.901Z,50.02
2023-04-03T14:58:02.050Z,50.11
2023-04-03T15:03:04.425Z,50.40
2023-04-03T15:08:06.866Z,50.63
2023-04-03T15:13:12.186Z,50.61
2023-04-03T15:18:21.738Z,50.62
2023-04-03T15:23:27.741Z,50.71
2023-04-03T15:28:34.188Z,50.84
2023-04-03T15:33:36.947Z,51.28
2023-04-03T15:38:39.513Z,51.86
2023-04-03T15:43:41.662Z,51.04
2023-04-03T15:48:43.863Z,51.72
2023-04-03T15:53:46.180Z,50.95
2023-04-03T15:58:48.035Z,51.67
2023-04-03T16:03:50.219Z,51.59
2023-04-03T16:08:52.891Z,50.97
2023-04-03T16:13:55.982Z,51.44
2023-04-03T16:18:58.460Z,51.09
2023-04-03T16:24:01.361Z,51.67
2023-04-03T16:29:03.581Z,51.10
2023-04-03T16:34:05.813Z,51.76
2023-04-03T16:39:11.017Z,52.21
2023-04-03T16:44:13.174Z,52.36
2023-04-03T16:49:15.232Z,51.72
2023-04-03T16:54:17.492Z,51.74
2023-04-03T16:59:19.715Z,51.88
2023-04-03T17:04:21.969Z,52.30
2023-04-03T17:09:24.576Z,52.55
2023-04-03T17:14:26.947Z,52.41
2023-04-03T17:19:29.737Z,52.36
2023-04-03T17:24:32.060Z,51.95
2023-04-03T17:29:34.302Z,52.05
2023-04-03T17:34:38.497Z,52.09
2023-04-03T17:39:40.860Z,52.33
2023-04-03T17:44:45.067Z,52.55
2023-04-03T17:49:47.409Z,52.20
2023-04-03T17:54:49.718Z,52.74
2023-04-03T17:59:54.517Z,52.94
2023-04-03T18:04:57.276Z,52.70
2023-04-03T18:10:01.022Z,53.21
2023-04-03T18:15:04.883Z,52.69
2023-04-03T18:20:07.749Z,52.50
2023-04-03T18:25:12.347Z,52.93
2023-04-03T18:30:18.377Z,53.16
2023-04-03T18:35:21.522Z,52.57
2023-04-03T18:40:24.765Z,52.70
2023-04-03T18:45:28.216Z,53.32
2023-04-03T18:50:31.492Z,52.67
2023-04-03T18:55:35.690Z,53.19
2023-04-03T19:00:40.092Z,53.02
2023-04-03T19:05:43.576Z,53.72
2023-04-03T19:10:46.794Z,53.60
2023-04-03T19:15:49.424Z,53.37
2023-04-03T19:20:52.391Z,54.53
2023-04-03T19:26:04.416Z,53.13
2023-04-03T19:31:21.555Z,53.78
2023-04-03T19:36:24.613Z,53.30
2023-04-03T19:41:30.138Z,54.50
2023-04-03T19:46:35.320Z,53.88
2023-04-03T19:51:38.699Z,54.09
2023-04-03T19:56:41.822Z,54.21
2023-04-03T20:01:47.134Z,54.28
2023-04-03T20:06:51.216Z,54.25
2023-04-03T20:11:54.914Z,54.79
2023-04-03T20:16:57.792Z,54.24
2023-04-03T20:22:03.054Z,54.79
2023-04-03T20:27:06.257Z,54.76
2023-04-03T20:32:10.789Z,54.31
2023-04-03T20:37:14.338Z,54.80
2023-04-03T20:42:16.761Z,55.66
2023-04-03T20:47:19.484Z,54.95
2023-04-03T20:52:21.659Z,55.51
2023-04-03T20:57:23.724Z,55.45
2023-04-03T21:02:25.866Z,55.74
2023-04-03T21:08:05.457Z,56.04
2023-04-03T21:13:45.206Z,55.92
2023-04-03T21:19:20.381Z,55.79
2023-04-03T21:24:23.297Z,56.36
2023-04-03T21:29:25.389Z,56.34
2023-04-03T21:34:31.912Z,56.04
2023-04-03T21:39:34.524Z,56.81
2023-04-03T21:44:36.585Z,56.19
2023-04-03T21:49:38.907Z,56.48
2023-04-03T21:54:41.012Z,55.66
2023-04-03T21:59:44.341Z,57.15
2023-04-03T22:04:47.700Z,55.98
2023-04-03T22:09:49.729Z,57.24
2023-04-03T22:14:51.778Z,55.97
2023-04-03T22:19:53.833Z,57.39
2023-04-03T22:24:56.147Z,56.81
2023-04-03T22:29:58.233Z,57.19
2023-04-03T22:35:00.597Z,56.83
2023-04-03T22:40:03.016Z,56.18
2023-04-03T22:45:05.473Z,57.65
2023-04-03T22:50:07.945Z,57.68
2023-04-03T22:55:19.005Z,57.44
2023-04-03T23:00:21.857Z,56.70
2023-04-03T23:05:23.942Z,58.24
2023-04-03T23:10:26.123Z,57.34
2023-04-03T23:15:28.157Z,57.05
2023-04-03T23:20:30.212Z,57.67
2023-04-03T23:25:32.225Z,57.99
2023-04-03T23:30:34.564Z,58.05
2023-04-03T23:35:43.650Z,57.03
2023-04-03T23:40:46.433Z,57.28
2023-04-03T23:45:48.596Z,57.74
2023-04-03T23:50:50.987Z,57.23
2023-04-03T23:55:53.118Z,57.89
